createdAt,value
2023-04-22T00:00:08.867Z,94.18
2023-04-22T00:01:13.225Z,94.14
2023-04-22T00:02:17.485Z,94.15
2023-04-22T00:03:21.719Z,94.17
2023-04-22T00:04:26.076Z,94.17
2023-04-22T00:05:30.140Z,94.18
2023-04-22T00:06:34.264Z,94.18
2023-04-22T00:07:38.473Z,94.24
2023-04-22T00:08:42.785Z,94.24
2023-04-22T00:09:47.180Z,94.24
2023-04-22T00:10:51.335Z,94.25
2023-04-22T00:11:55.618Z,94.27
2023-04-22T00:12:59.917Z,94.30
2023-04-22T00:14:04.126Z,94.36
2023-04-22T00:15:08.388Z,94.42
2023-04-22T00:16:12.677Z,94.49
2023-04-22T00:17:16.902Z,94.56
2023-04-22T00:18:21.090Z,94.59
2023-04-22T00:19:25.311Z,94.66
2023-04-22T00:20:29.690Z,94.77
2023-04-22T00:21:33.848Z,94.84
2023-04-22T00:22:38.229Z,94.92
2023-04-22T00:23:42.607Z,95.01
2023-04-22T00:24:46.799Z,95.09
2023-04-22T00:25:51.079Z,95.16
2023-04-22T00:26:55.371Z,95.24
2023-04-22T00:27:59.684Z,95.24
2023-04-22T00:29:03.931Z,95.28
2023-04-22T00:30:08.144Z,95.32
2023-04-22T00:31:12.533Z,95.36
2023-04-22T00:32:16.786Z,95.42
2023-04-22T00:33:21.123Z,95.50
2023-04-22T00:34:25.420Z,95.44
2023-04-22T00:35:29.733Z,95.60
2023-04-22T00:36:33.927Z,95.63
2023-04-22T00:37:38.167Z,95.66
2023-04-22T00:38:42.435Z,95.72
2023-04-22T00:39:46.648Z,95.72
2023-04-22T00:40:50.924Z,95.76
2023-04-22T00:41:55.146Z,95.80
2023-04-22T00:42:59.425Z,95.83
2023-04-22T00:44:06.731Z,95.88
2023-04-22T00:45:10.061Z,95.91
2023-04-22T00:46:14.289Z,95.93
2023-04-22T00:47:18.576Z,95.98
2023-04-22T00:48:22.849Z,96.01
2023-04-22T00:49:27.113Z,96.04
2023-04-22T00:50:31.519Z,96.05
2023-04-22T00:51:35.825Z,96.07
2023-04-22T00:52:40.051Z,96.06
2023-04-22T00:53:44.333Z,96.08
2023-04-22T00:54:48.561Z,96.09
2023-04-22T00:55:52.726Z,96.20
2023-04-22T00:57:03.184Z,96.22
2023-04-22T00:58:06.035Z,96.27
2023-04-22T00:59:10.269Z,96.29
2023-04-22T01:00:14.537Z,96.31
2023-04-22T01:01:18.925Z,96.31
2023-04-22T01:02:23.161Z,96.29
2023-04-22T01:03:27.384Z,96.28
2023-04-22T01:04:31.614Z,96.24
2023-04-22T01:05:35.891Z,96.18
2023-04-22T01:06:40.186Z,96.17
2023-04-22T01:07:44.389Z,96.10
2023-04-22T01:08:48.714Z,96.03
2023-04-22T01:09:52.956Z,95.99
2023-04-22T01:10:57.210Z,95.96
2023-04-22T01:12:01.537Z,95.94
2023-04-22T01:13:05.657Z,95.97
2023-04-22T01:14:09.889Z,95.97
2023-04-22T01:15:14.261Z,96.00
2023-04-22T01:16:18.547Z,96.02
2023-04-22T01:17:22.763Z,96.01
2023-04-22T01:18:27.003Z,96.05
2023-04-22T01:19:31.278Z,96.10
2023-04-22T01:20:35.505Z,96.13
2023-04-22T01:21:39.795Z,96.13
2023-04-22T01:22:44.037Z,96.17
2023-04-22T01:23:48.181Z,96.16
2023-04-22T01:25:06.586Z,96.22
2023-04-22T01:26:09.840Z,96.28
2023-04-22T01:27:14.147Z,96.32
2023-04-22T01:28:18.381Z,96.37
2023-04-22T01:29:22.524Z,96.45
2023-04-22T01:30:26.874Z,96.49
2023-04-22T01:31:31.134Z,96.55
2023-04-22T01:32:35.433Z,96.59
2023-04-22T01:33:39.757Z,96.58
2023-04-22T01:34:44.058Z,96.60
2023-04-22T01:35:48.356Z,96.62
2023-04-22T01:36:52.665Z,96.66
2023-04-22T01:37:56.849Z,96.73
2023-04-22T01:39:01.037Z,96.79
2023-04-22T01:40:05.341Z,96.87
2023-04-22T01:41:09.611Z,96.89
2023-04-22T01:42:13.895Z,96.92
2023-04-22T01:43:18.132Z,96.95
2023-04-22T01:44:22.439Z,96.97
2023-04-22T01:45:26.709Z,96.96
2023-04-22T01:46:31.029Z,97.01
2023-04-22T01:47:35.258Z,97.05
2023-04-22T01:48:39.547Z,97.09
2023-04-22T01:49:57.713Z,97.19
2023-04-22T01:51:00.852Z,97.24
2023-04-22T01:52:05.010Z,97.33
2023-04-22T01:53:09.287Z,97.33
2023-04-22T01:54:13.584Z,97.38
2023-04-22T01:55:17.863Z,97.35
2023-04-22T01:56:22.162Z,97.34
2023-04-22T01:57:26.314Z,97.33
2023-04-22T01:58:30.608Z,97.34
2023-04-22T01:59:34.889Z,97.38
2023-04-22T02:00:39.159Z,97.40
2023-04-22T02:01:43.457Z,97.43
2023-04-22T02:02:47.858Z,97.50
2023-04-22T02:03:52.113Z,97.52
2023-04-22T02:04:56.284Z,97.55
2023-04-22T02:06:00.513Z,97.54
2023-04-22T02:07:04.839Z,97.53
2023-04-22T02:08:09.074Z,97.56
2023-04-22T02:09:13.260Z,97.57
2023-04-22T02:10:17.583Z,97.59
2023-04-22T02:11:21.849Z,97.59
2023-04-22T02:12:26.012Z,97.58
2023-04-22T02:13:30.313Z,97.58
2023-04-22T02:14:34.544Z,97.64
2023-04-22T02:15:41.852Z,97.50
2023-04-22T02:16:45.144Z,97.47
2023-04-22T02:17:49.404Z,97.44
2023-04-22T02:18:53.668Z,97.41
2023-04-22T02:19:57.908Z,97.36
2023-04-22T02:21:02.082Z,97.29
2023-04-22T02:22:06.384Z,97.29
2023-04-22T02:23:10.541Z,97.27
2023-04-22T02:24:14.899Z,97.25
2023-04-22T02:25:19.117Z,97.26
2023-04-22T02:26:23.285Z,97.28
2023-04-22T02:27:27.530Z,97.32
2023-04-22T02:28:31.843Z,97.35
2023-04-22T02:29:35.995Z,97.33
2023-04-22T02:30:40.271Z,97.41
2023-04-22T02:31:44.517Z,97.48
2023-04-22T02:32:48.788Z,97.60
2023-04-22T02:33:53.051Z,97.67
2023-04-22T02:34:57.225Z,97.79
2023-04-22T02:36:01.537Z,97.85
2023-04-22T02:37:05.770Z,97.93
2023-04-22T02:38:10.062Z,98.01
2023-04-22T02:39:14.336Z,98.09
2023-04-22T02:40:18.627Z,98.16
2023-04-22T02:41:22.890Z,98.21
2023-04-22T02:42:27.134Z,98.22
2023-04-22T02:43:31.415Z,98.22
2023-04-22T02:44:35.725Z,98.27
2023-04-22T02:45:39.887Z,98.19
2023-04-22T02:46:44.268Z,98.27
2023-04-22T02:47:48.485Z,98.27
2023-04-22T02:48:52.716Z,98.25
2023-04-22T02:49:57.020Z,98.25
2023-04-22T02:51:01.254Z,98.25
2023-04-22T02:52:05.435Z,98.26
2023-04-22T02:53:09.658Z,98.29
2023-04-22T02:54:13.837Z,98.23
2023-04-22T02:55:18.215Z,98.27
2023-04-22T02:56:22.325Z,98.25
2023-04-22T02:57:26.650Z,98.29
2023-04-22T02:58:30.889Z,98.34
2023-04-22T02:59:35.133Z,98.29
2023-04-22T03:00:39.312Z,98.30
2023-04-22T03:01:46.563Z,98.30
2023-04-22T03:02:49.902Z,98.28
2023-04-22T03:03:54.185Z,98.24
2023-04-22T03:04:58.418Z,98.21
2023-04-22T03:06:02.661Z,98.20
2023-04-22T03:07:06.776Z,98.20
2023-04-22T03:08:11.103Z,98.22
2023-04-22T03:09:15.282Z,98.23
2023-04-22T03:10:19.587Z,98.21
2023-04-22T03:11:23.804Z,98.20
2023-04-22T03:12:28.058Z,98.17
2023-04-22T03:13:32.329Z,98.22
2023-04-22T03:14:36.587Z,98.19
2023-04-22T03:15:40.868Z,98.23
2023-04-22T03:16:45.130Z,98.23
2023-04-22T03:17:49.374Z,98.22
2023-04-22T03:18:53.615Z,98.17
2023-04-22T03:19:57.859Z,98.19
2023-04-22T03:21:02.166Z,98.22
2023-04-22T03:22:06.375Z,98.22
2023-04-22T03:23:10.664Z,98.25
2023-04-22T03:24:14.785Z,98.31
2023-04-22T03:25:19.092Z,98.34
2023-04-22T03:26:23.360Z,98.38
2023-04-22T03:27:27.603Z,98.37
2023-04-22T03:28:31.896Z,98.35
2023-04-22T03:29:42.514Z,98.42
2023-04-22T03:30:45.045Z,98.42
2023-04-22T03:31:49.295Z,98.42
2023-04-22T03:32:53.454Z,98.48
2023-04-22T03:33:57.705Z,98.50
2023-04-22T03:35:01.910Z,98.54
2023-04-22T03:36:06.179Z,98.56
2023-04-22T03:37:10.503Z,98.57
2023-04-22T03:38:14.584Z,98.55
2023-04-22T03:39:21.821Z,98.56
2023-04-22T03:40:25.201Z,98.59
2023-04-22T03:41:29.333Z,98.62
2023-04-22T03:42:33.652Z,98.64
2023-04-22T03:43:37.807Z,98.64
2023-04-22T03:44:41.994Z,98.64
2023-04-22T03:45:46.356Z,98.63
2023-04-22T03:46:50.509Z,98.63
2023-04-22T03:47:54.816Z,98.61
2023-04-22T03:48:58.991Z,98.58
2023-04-22T03:50:03.307Z,98.54
2023-04-22T03:51:07.615Z,98.55
2023-04-22T03:52:11.786Z,98.45
2023-04-22T03:53:15.988Z,98.37
2023-04-22T03:54:20.324Z,98.28
2023-04-22T03:55:24.534Z,98.20
2023-04-22T03:56:28.823Z,98.15
2023-04-22T03:57:33.072Z,98.09
2023-04-22T03:58:37.229Z,98.04
2023-04-22T03:59:41.750Z,98.01
2023-04-22T04:00:45.654Z,97.96
2023-04-22T04:01:49.960Z,97.94
2023-04-22T04:02:54.375Z,97.92
2023-04-22T04:03:58.624Z,97.88
2023-04-22T04:05:02.887Z,97.83
2023-04-22T04:06:06.919Z,97.77
2023-04-22T04:07:11.003Z,97.74
2023-04-22T04:08:15.360Z,97.60
2023-04-22T04:09:19.471Z,97.59
2023-04-22T04:10:23.695Z,97.61
2023-04-22T04:11:27.899Z,97.63
2023-04-22T04:12:32.150Z,97.65
2023-04-22T04:13:36.457Z,97.67
2023-04-22T04:14:40.617Z,97.69
2023-04-22T04:15:44.978Z,97.77
2023-04-22T04:16:49.086Z,97.85
2023-04-22T04:17:53.467Z,97.91
2023-04-22T04:18:57.642Z,97.99
2023-04-22T04:20:01.903Z,98.01
2023-04-22T04:21:06.065Z,98.15
2023-04-22T04:22:10.367Z,98.25
2023-04-22T04:23:14.647Z,98.33
2023-04-22T04:24:18.834Z,98.36
2023-04-22T04:25:23.129Z,98.44
2023-04-22T04:26:27.291Z,98.48
2023-04-22T04:27:31.610Z,98.52
2023-04-22T04:28:35.892Z,98.55
2023-04-22T04:29:40.482Z,98.56
2023-04-22T04:30:44.274Z,98.54
2023-04-22T04:31:48.684Z,98.50
2023-04-22T04:32:52.895Z,98.44
2023-04-22T04:33:57.088Z,98.45
2023-04-22T04:35:01.372Z,98.46
2023-04-22T04:36:05.536Z,98.44
2023-04-22T04:37:09.865Z,98.48
2023-04-22T04:38:14.102Z,98.51
2023-04-22T04:39:18.299Z,98.53
2023-04-22T04:40:22.662Z,98.61
2023-04-22T04:41:26.905Z,98.63
2023-04-22T04:42:31.186Z,98.67
2023-04-22T04:43:35.375Z,98.72
2023-04-22T04:44:39.631Z,98.77
2023-04-22T04:45:46.216Z,98.81
2023-04-22T04:46:48.134Z,98.89
2023-04-22T04:47:52.425Z,98.89
2023-04-22T04:48:56.686Z,98.93
2023-04-22T04:50:00.880Z,98.94
2023-04-22T04:51:05.146Z,99.04
2023-04-22T04:52:09.443Z,99.11
2023-04-22T04:53:13.571Z,99.14
2023-04-22T04:54:17.897Z,99.16
2023-04-22T04:55:22.108Z,99.18
2023-04-22T04:56:26.287Z,99.19
2023-04-22T04:57:30.564Z,99.20
2023-04-22T04:58:34.834Z,99.23
2023-04-22T04:59:39.355Z,99.28
2023-04-22T05:00:43.356Z,99.34
2023-04-22T05:01:47.710Z,99.38
2023-04-22T05:02:51.982Z,99.45
2023-04-22T05:03:56.219Z,99.53
2023-04-22T05:05:00.405Z,99.60
2023-04-22T05:06:04.657Z,99.66
2023-04-22T05:07:08.924Z,99.69
2023-04-22T05:08:13.250Z,99.70
2023-04-22T05:09:17.492Z,99.70
2023-04-22T05:10:21.662Z,99.72
2023-04-22T05:11:25.978Z,99.73
2023-04-22T05:12:30.265Z,99.75
2023-04-22T05:13:34.536Z,99.76
2023-04-22T05:14:38.780Z,99.77
2023-04-22T05:15:43.091Z,99.82
2023-04-22T05:16:47.258Z,99.82
2023-04-22T05:17:51.514Z,99.83
2023-04-22T05:18:55.736Z,99.85
2023-04-22T05:19:59.953Z,99.88
2023-04-22T05:21:04.108Z,99.89
2023-04-22T05:22:22.516Z,99.92
2023-04-22T05:23:25.535Z,99.91
2023-04-22T05:24:29.791Z,99.91
2023-04-22T05:25:33.954Z,99.95
2023-04-22T05:26:38.258Z,100.00
2023-04-22T05:27:42.547Z,99.98
2023-04-22T05:28:46.834Z,99.90
2023-04-22T05:29:51.172Z,99.74
2023-04-22T05:30:55.423Z,99.51
2023-04-22T05:31:59.756Z,99.08
2023-04-22T05:33:04.061Z,98.46
2023-04-22T05:34:08.282Z,97.99
2023-04-22T05:35:12.477Z,97.56
2023-04-22T05:36:16.834Z,97.21
2023-04-22T05:37:21.000Z,96.81
2023-04-22T05:38:25.345Z,96.38
2023-04-22T05:39:29.660Z,95.74
2023-04-22T05:40:33.852Z,95.29
2023-04-22T05:41:38.270Z,94.65
2023-04-22T05:42:42.363Z,93.99
2023-04-22T05:43:46.838Z,93.63
2023-04-22T05:44:51.067Z,93.14
2023-04-22T05:45:55.458Z,92.58
2023-04-22T05:46:59.704Z,92.26
2023-04-22T05:48:04.057Z,91.87
2023-04-22T05:49:08.316Z,91.56
2023-04-22T05:50:12.530Z,91.32
2023-04-22T05:51:16.872Z,91.05
2023-04-22T05:52:21.194Z,90.83
2023-04-22T05:53:25.475Z,90.60
2023-04-22T05:54:29.780Z,90.49
2023-04-22T05:55:34.092Z,90.31
2023-04-22T05:56:38.387Z,90.13
2023-04-22T05:59:09.913Z,89.45
2023-04-22T06:00:13.959Z,89.28
2023-04-22T06:01:32.376Z,88.76
2023-04-22T06:02:35.703Z,88.01
2023-04-22T06:03:40.185Z,87.46
2023-04-22T06:04:47.316Z,86.99
2023-04-22T06:05:50.591Z,86.33
2023-04-22T06:06:54.877Z,85.89
2023-04-22T06:07:59.171Z,85.25
2023-04-22T06:09:03.469Z,84.90
2023-04-22T06:10:07.806Z,84.79
2023-04-22T06:11:12.131Z,84.48
2023-04-22T06:12:16.455Z,84.20
2023-04-22T06:13:20.744Z,83.98
2023-04-22T06:14:25.117Z,83.74
2023-04-22T06:15:29.548Z,83.25
2023-04-22T06:16:33.807Z,82.65
2023-04-22T06:17:38.157Z,82.15
2023-04-22T06:18:42.499Z,81.83
2023-04-22T06:19:46.797Z,81.91
2023-04-22T06:20:51.220Z,81.70
2023-04-22T06:21:55.550Z,80.45
2023-04-22T06:22:59.902Z,80.01
2023-04-22T06:24:04.215Z,79.68
2023-04-22T06:25:08.571Z,79.28
2023-04-22T06:26:12.963Z,78.42
2023-04-22T06:27:17.275Z,77.84
2023-04-22T06:28:21.603Z,77.88
2023-04-22T06:29:25.970Z,77.53
2023-04-22T06:30:30.312Z,76.94
2023-04-22T06:31:48.778Z,76.79
2023-04-22T06:32:51.952Z,77.27
2023-04-22T06:33:56.227Z,77.90
2023-04-22T06:35:00.546Z,77.83
2023-04-22T06:36:04.900Z,76.75
2023-04-22T06:37:09.235Z,76.19
2023-04-22T06:38:13.534Z,75.67
2023-04-22T06:39:17.843Z,76.14
2023-04-22T06:40:22.159Z,76.13
2023-04-22T06:41:26.497Z,76.31
2023-04-22T06:42:30.832Z,76.19
2023-04-22T06:43:35.146Z,76.12
2023-04-22T06:44:39.496Z,75.80
2023-04-22T06:45:43.866Z,75.85
2023-04-22T06:46:48.176Z,76.32
2023-04-22T06:47:52.482Z,76.58
2023-04-22T06:48:56.843Z,76.39
2023-04-22T06:50:01.180Z,75.70
2023-04-22T06:51:05.547Z,76.20
2023-04-22T06:52:09.974Z,76.67
2023-04-22T06:53:14.248Z,76.05
2023-04-22T06:54:18.580Z,74.93
2023-04-22T06:55:22.935Z,74.81
2023-04-22T06:56:27.292Z,74.15
2023-04-22T06:57:31.637Z,73.87
2023-04-22T06:58:35.990Z,74.00
2023-04-22T06:59:40.876Z,73.63
2023-04-22T07:00:58.689Z,72.81
2023-04-22T07:02:01.980Z,73.06
2023-04-22T07:03:06.346Z,73.38
2023-04-22T07:04:10.612Z,73.63
2023-04-22T07:05:14.949Z,74.03
2023-04-22T07:06:19.422Z,74.39
2023-04-22T07:07:23.619Z,74.30
2023-04-22T07:08:27.961Z,73.25
2023-04-22T07:09:32.383Z,72.48
2023-04-22T07:10:36.745Z,72.34
2023-04-22T07:11:40.996Z,72.18
2023-04-22T07:12:59.215Z,72.86
2023-04-22T07:14:02.584Z,73.47
2023-04-22T07:15:12.897Z,73.46
2023-04-22T07:16:16.055Z,72.22
2023-04-22T07:17:20.171Z,72.53
2023-04-22T07:18:24.480Z,72.61
2023-04-22T07:19:28.713Z,72.14
2023-04-22T07:20:33.069Z,70.92
2023-04-22T07:21:37.524Z,69.98
2023-04-22T07:22:41.833Z,69.67
2023-04-22T07:24:00.109Z,69.81
2023-04-22T07:25:03.476Z,69.89
2023-04-22T07:26:07.609Z,70.54
2023-04-22T07:27:12.018Z,70.30
2023-04-22T07:28:16.315Z,69.63
2023-04-22T07:29:20.728Z,69.51
2023-04-22T07:30:24.975Z,69.70
2023-04-22T07:31:29.393Z,69.77
2023-04-22T07:32:33.605Z,70.63
2023-04-22T07:33:38.013Z,69.45
2023-04-22T07:34:45.457Z,69.43
2023-04-22T07:35:48.995Z,70.02
2023-04-22T07:36:53.177Z,69.75
2023-04-22T07:37:57.638Z,70.10
2023-04-22T07:39:01.956Z,69.76
2023-04-22T07:40:06.383Z,69.47
2023-04-22T07:41:10.797Z,68.86
2023-04-22T07:42:15.226Z,68.36
2023-04-22T07:43:19.540Z,68.28
2023-04-22T07:44:23.793Z,68.16
2023-04-22T07:45:28.352Z,68.71
2023-04-22T07:46:46.620Z,69.24
2023-04-22T07:47:49.800Z,69.07
2023-04-22T07:48:54.126Z,68.94
2023-04-22T07:49:58.296Z,68.17
2023-04-22T07:51:02.744Z,68.21
2023-04-22T07:52:07.138Z,68.39
2023-04-22T07:53:11.483Z,67.69
2023-04-22T07:54:15.756Z,67.15
2023-04-22T07:55:20.179Z,67.12
2023-04-22T07:56:24.563Z,67.20
2023-04-22T07:57:28.949Z,66.81
2023-04-22T07:58:33.363Z,67.31
2023-04-22T07:59:37.848Z,67.47
2023-04-22T08:00:42.108Z,67.35
2023-04-22T08:01:46.499Z,67.80
2023-04-22T08:02:51.040Z,68.12
2023-04-22T08:03:55.595Z,68.22
2023-04-22T08:04:59.666Z,68.45
2023-04-22T08:06:04.049Z,67.85
2023-04-22T08:07:29.841Z,68.29
2023-04-22T08:08:12.780Z,68.62
2023-04-22T08:09:17.290Z,68.88
2023-04-22T08:10:21.676Z,68.36
2023-04-22T08:11:26.017Z,67.46
2023-04-22T08:12:30.471Z,67.57
2023-04-22T08:13:34.807Z,67.63
2023-04-22T08:14:53.282Z,67.87
2023-04-22T08:15:56.680Z,68.21
2023-04-22T08:17:00.909Z,68.40
2023-04-22T08:18:05.354Z,68.38
2023-04-22T08:19:09.656Z,67.55
2023-04-22T08:20:17.084Z,67.65
2023-04-22T08:21:20.687Z,67.09
2023-04-22T08:22:28.112Z,67.02
2023-04-22T08:23:31.618Z,67.35
2023-04-22T08:24:35.968Z,67.44
2023-04-22T08:25:40.377Z,66.75
2023-04-22T08:26:44.753Z,65.73
2023-04-22T08:27:49.184Z,65.68
2023-04-22T08:28:53.592Z,65.98
2023-04-22T08:29:57.999Z,65.67
2023-04-22T08:31:02.442Z,65.85
2023-04-22T08:32:06.788Z,65.14
2023-04-22T08:33:11.194Z,64.94
2023-04-22T08:34:15.546Z,65.77
2023-04-22T08:35:19.914Z,66.00
2023-04-22T08:36:24.279Z,66.07
2023-04-22T08:37:28.687Z,65.52
2023-04-22T08:38:33.136Z,64.89
2023-04-22T08:39:37.706Z,64.80
2023-04-22T08:40:41.938Z,64.97
2023-04-22T08:41:46.469Z,65.58
2023-04-22T08:42:50.780Z,65.73
2023-04-22T08:45:22.562Z,65.81
2023-04-22T08:46:26.878Z,66.37
2023-04-22T08:47:31.218Z,65.66
2023-04-22T08:48:35.599Z,64.79
2023-04-22T08:49:40.208Z,64.67
2023-04-22T08:50:44.296Z,64.73
2023-04-22T08:51:48.719Z,65.20
2023-04-22T08:52:59.122Z,65.90
2023-04-22T08:54:02.210Z,65.47
2023-04-22T08:55:06.567Z,65.08
2023-04-22T08:56:10.985Z,65.27
2023-04-22T08:57:15.371Z,65.34
2023-04-22T08:58:19.799Z,65.64
2023-04-22T08:59:24.192Z,65.52
2023-04-22T09:00:28.604Z,65.51
2023-04-22T09:01:33.086Z,65.55
2023-04-22T09:02:37.420Z,65.65
2023-04-22T09:03:41.878Z,65.41
2023-04-22T09:04:46.190Z,64.71
2023-04-22T09:05:50.725Z,64.66
2023-04-22T09:06:55.082Z,63.61
2023-04-22T09:07:59.486Z,63.94
2023-04-22T09:09:03.959Z,64.30
2023-04-22T09:10:08.376Z,64.46
2023-04-22T09:11:12.788Z,64.37
2023-04-22T09:12:31.298Z,64.47
2023-04-22T09:13:34.682Z,63.70
2023-04-22T09:14:39.032Z,63.67
2023-04-22T09:15:43.446Z,62.93
2023-04-22T09:16:48.013Z,62.46
2023-04-22T09:17:52.352Z,63.35
2023-04-22T09:18:56.747Z,64.16
2023-04-22T09:20:01.124Z,63.41
2023-04-22T09:21:05.515Z,62.60
2023-04-22T09:22:15.935Z,63.10
2023-04-22T09:23:18.990Z,63.19
2023-04-22T09:24:23.332Z,63.29
2023-04-22T09:25:27.800Z,63.16
2023-04-22T09:26:32.211Z,62.48
2023-04-22T09:27:36.611Z,61.95
2023-04-22T09:28:40.988Z,62.24
2023-04-22T09:29:45.427Z,62.53
2023-04-22T09:30:49.796Z,62.40
2023-04-22T09:31:54.333Z,62.49
2023-04-22T09:32:58.767Z,62.12
2023-04-22T09:34:03.050Z,61.96
2023-04-22T09:35:07.485Z,62.54
2023-04-22T09:36:11.929Z,61.80
2023-04-22T09:37:16.352Z,62.02
2023-04-22T09:38:20.768Z,62.63
2023-04-22T09:39:28.090Z,63.29
2023-04-22T09:40:31.747Z,62.30
2023-04-22T09:41:36.193Z,62.14
2023-04-22T09:42:40.574Z,61.77
2023-04-22T09:43:45.012Z,61.52
2023-04-22T09:44:49.405Z,60.99
2023-04-22T09:45:53.834Z,60.84
2023-04-22T09:46:58.169Z,59.32
2023-04-22T09:48:02.637Z,59.72
2023-04-22T09:49:08.013Z,59.97
2023-04-22T09:50:12.018Z,59.79
2023-04-22T09:51:19.426Z,60.60
2023-04-22T09:52:22.979Z,61.52
2023-04-22T09:53:27.389Z,61.09
2023-04-22T09:54:31.785Z,60.77
2023-04-22T09:55:52.259Z,61.09
2023-04-22T09:56:55.738Z,61.33
2023-04-22T09:58:00.120Z,60.59
2023-04-22T09:59:04.480Z,60.69
2023-04-22T10:00:08.921Z,60.98
2023-04-22T10:01:13.379Z,61.59
2023-04-22T10:02:17.768Z,61.56
2023-04-22T10:03:22.198Z,61.31
2023-04-22T10:04:26.741Z,60.80
2023-04-22T10:05:31.001Z,61.37
2023-04-22T10:06:35.518Z,61.14
2023-04-22T10:07:39.902Z,59.95
2023-04-22T10:08:44.273Z,59.49
2023-04-22T10:09:48.678Z,59.40
2023-04-22T10:10:53.105Z,59.53
2023-04-22T10:11:57.420Z,59.61
2023-04-22T10:13:07.969Z,59.29
2023-04-22T10:14:10.984Z,59.59
2023-04-22T10:15:15.469Z,59.96
2023-04-22T10:16:19.877Z,60.18
2023-04-22T10:17:38.217Z,60.97
2023-04-22T10:18:55.571Z,61.27
2023-04-22T10:19:58.523Z,60.29
2023-04-22T10:21:02.866Z,59.69
2023-04-22T10:22:07.408Z,59.37
2023-04-22T10:23:11.717Z,59.70
2023-04-22T10:24:16.131Z,58.57
2023-04-22T10:25:20.540Z,58.96
2023-04-22T10:26:24.929Z,59.88
2023-04-22T10:27:29.363Z,60.18
2023-04-22T10:28:33.880Z,59.30
2023-04-22T10:29:38.596Z,59.64
2023-04-22T10:30:42.713Z,59.68
2023-04-22T10:31:47.140Z,58.92
2023-04-22T10:32:51.746Z,58.55
2023-04-22T10:33:56.091Z,58.81
2023-04-22T10:35:00.511Z,59.25
2023-04-22T10:36:04.894Z,59.12
2023-04-22T10:37:09.273Z,58.27
2023-04-22T10:38:27.720Z,58.54
2023-04-22T10:39:34.002Z,59.21
2023-04-22T10:40:37.489Z,58.94
2023-04-22T10:43:09.475Z,58.42
2023-04-22T10:44:13.819Z,58.28
2023-04-22T10:45:18.315Z,58.00
2023-04-22T10:46:28.775Z,58.33
2023-04-22T10:47:31.931Z,57.97
2023-04-22T10:48:36.244Z,58.06
2023-04-22T10:49:40.863Z,58.43
2023-04-22T10:50:45.190Z,58.53
2023-04-22T10:51:49.511Z,57.62
2023-04-22T10:52:53.975Z,57.58
2023-04-22T10:55:25.757Z,58.43
2023-04-22T10:56:51.739Z,58.09
2023-04-22T10:58:01.492Z,58.33
2023-04-22T10:59:04.797Z,57.57
2023-04-22T11:00:09.104Z,57.78
2023-04-22T11:01:13.480Z,57.49
2023-04-22T11:02:18.110Z,57.38
2023-04-22T11:03:22.459Z,55.42
2023-04-22T11:04:26.810Z,54.32
2023-04-22T11:05:31.152Z,53.63
2023-04-22T11:06:35.504Z,52.88
2023-04-22T11:07:40.058Z,53.31
2023-04-22T11:08:44.456Z,52.58
2023-04-22T11:09:48.796Z,53.14
2023-04-22T11:10:54.254Z,53.15
2023-04-22T11:11:58.235Z,53.85
2023-04-22T11:13:02.805Z,53.55
2023-04-22T11:14:07.193Z,54.04
2023-04-22T11:15:11.612Z,53.96
2023-04-22T11:16:16.124Z,53.52
2023-04-22T11:17:20.546Z,53.45
2023-04-22T11:18:24.934Z,52.71
2023-04-22T11:19:29.483Z,52.51
2023-04-22T11:20:34.015Z,52.45
2023-04-22T11:21:38.399Z,52.36
2023-04-22T11:22:42.863Z,51.63
2023-04-22T11:23:47.286Z,51.49
2023-04-22T11:24:51.649Z,51.60
2023-04-22T11:25:56.115Z,51.97
2023-04-22T11:27:00.558Z,51.75
2023-04-22T11:28:21.036Z,51.47
2023-04-22T11:29:22.283Z,51.78
2023-04-22T11:30:26.733Z,51.76
2023-04-22T11:31:37.200Z,51.45
2023-04-22T11:32:40.283Z,51.16
2023-04-22T11:33:44.666Z,51.03
2023-04-22T11:34:49.101Z,51.14
2023-04-22T11:35:53.516Z,51.42
2023-04-22T11:36:57.998Z,51.11
2023-04-22T11:38:02.371Z,51.29
2023-04-22T11:39:06.836Z,52.26
2023-04-22T11:40:21.691Z,52.47
2023-04-22T11:41:21.757Z,52.79
2023-04-22T11:42:24.862Z,53.08
2023-04-22T11:43:29.269Z,53.40
2023-04-22T11:44:33.721Z,53.43
2023-04-22T11:45:38.216Z,53.18
2023-04-22T11:46:42.624Z,52.92
2023-04-22T11:47:47.046Z,52.19
2023-04-22T11:48:51.543Z,51.95
2023-04-22T11:50:10.006Z,51.84
2023-04-22T11:51:13.410Z,51.59
2023-04-22T11:52:19.111Z,51.31
2023-04-22T11:53:22.123Z,50.65
2023-04-22T11:54:26.541Z,51.04
2023-04-22T11:55:30.970Z,51.89
2023-04-22T11:56:35.431Z,52.44
2023-04-22T11:57:39.898Z,51.55
2023-04-22T11:58:44.272Z,51.19
2023-04-22T11:59:48.773Z,51.01
2023-04-22T12:00:53.226Z,51.24
2023-04-22T12:01:57.743Z,51.09
2023-04-22T12:03:02.320Z,51.04
2023-04-22T12:04:06.828Z,50.34
2023-04-22T12:05:11.208Z,50.00
2023-04-22T12:06:16.560Z,49.39
2023-04-22T12:07:20.693Z,50.32
2023-04-22T12:08:25.047Z,50.30
2023-04-22T12:09:29.445Z,50.89
2023-04-22T12:10:34.031Z,51.44
2023-04-22T12:11:38.353Z,49.82
2023-04-22T12:12:56.892Z,50.65
2023-04-22T12:14:00.305Z,50.77
2023-04-22T12:15:04.721Z,50.92
2023-04-22T12:16:09.151Z,49.90
2023-04-22T12:17:13.759Z,49.20
2023-04-22T12:18:32.145Z,49.28
2023-04-22T12:19:35.375Z,50.04
2023-04-22T12:20:39.831Z,50.60
2023-04-22T12:21:44.213Z,50.27
2023-04-22T12:22:48.771Z,48.89
2023-04-22T12:23:53.208Z,49.66
2023-04-22T12:24:57.556Z,49.32
2023-04-22T12:26:16.007Z,49.55
2023-04-22T12:27:19.189Z,49.62
2023-04-22T12:28:23.541Z,49.30
2023-04-22T12:29:27.953Z,48.92
2023-04-22T12:30:32.356Z,49.51
2023-04-22T12:31:36.975Z,49.69
2023-04-22T12:32:41.264Z,50.55
2023-04-22T12:33:45.714Z,49.81
2023-04-22T12:34:50.103Z,49.44
2023-04-22T12:35:54.605Z,49.14
2023-04-22T12:36:59.071Z,48.86
2023-04-22T12:38:03.552Z,49.39
2023-04-22T12:39:22.127Z,49.59
2023-04-22T12:40:25.655Z,49.36
2023-04-22T12:41:29.995Z,49.16
2023-04-22T12:42:34.457Z,49.27
2023-04-22T12:43:53.034Z,49.63
2023-04-22T12:44:56.287Z,49.24
2023-04-22T12:46:00.770Z,49.14
2023-04-22T12:47:05.251Z,49.94
2023-04-22T12:48:09.703Z,49.88
2023-04-22T12:49:14.167Z,50.21
2023-04-22T12:50:32.791Z,49.72
2023-04-22T12:51:36.441Z,49.28
2023-04-22T12:52:40.923Z,49.40
2023-04-22T12:53:45.497Z,49.33
2023-04-22T12:54:49.961Z,49.44
2023-04-22T12:55:54.404Z,49.61
2023-04-22T12:56:58.861Z,49.31
2023-04-22T12:58:03.302Z,49.76
2023-04-22T12:59:07.850Z,50.53
2023-04-22T13:00:12.220Z,50.32
2023-04-22T13:01:16.845Z,49.05
2023-04-22T13:02:21.274Z,49.31
2023-04-22T13:03:39.856Z,49.46
2023-04-22T13:04:43.266Z,49.12
2023-04-22T13:05:50.620Z,49.66
2023-04-22T13:06:54.250Z,50.35
2023-04-22T13:08:06.622Z,50.52
2023-04-22T13:09:03.197Z,50.12
2023-04-22T13:10:07.623Z,49.50
2023-04-22T13:11:12.243Z,49.17
2023-04-22T13:12:16.620Z,49.08
2023-04-22T13:13:21.098Z,48.54
2023-04-22T13:14:25.674Z,48.77
2023-04-22T13:15:30.006Z,48.79
2023-04-22T13:16:34.825Z,49.16
2023-04-22T13:17:39.018Z,48.70
2023-04-22T13:18:43.530Z,48.45
2023-04-22T13:19:48.066Z,49.05
2023-04-22T13:20:52.473Z,48.46
2023-04-22T13:21:57.006Z,48.69
2023-04-22T13:23:07.443Z,49.39
2023-04-22T13:24:10.658Z,50.26
2023-04-22T13:25:15.067Z,50.43
2023-04-22T13:26:19.591Z,50.00
2023-04-22T13:27:24.001Z,50.78
2023-04-22T13:28:28.461Z,50.89
2023-04-22T13:29:32.995Z,51.26
2023-04-22T13:30:37.413Z,51.01
2023-04-22T13:31:41.896Z,51.25
2023-04-22T13:32:46.409Z,50.83
2023-04-22T13:33:50.850Z,50.22
2023-04-22T13:34:55.319Z,50.72
2023-04-22T13:35:59.765Z,50.46
2023-04-22T13:37:04.213Z,50.83
2023-04-22T13:38:08.627Z,50.42
2023-04-22T13:39:13.157Z,50.26
2023-04-22T13:40:17.624Z,49.75
2023-04-22T13:41:22.040Z,49.74
2023-04-22T13:42:26.492Z,49.44
2023-04-22T13:43:45.065Z,49.83
2023-04-22T13:44:48.561Z,49.31
2023-04-22T13:45:53.008Z,49.45
2023-04-22T13:46:57.383Z,49.73
2023-04-22T13:48:01.917Z,50.25
2023-04-22T13:49:06.319Z,50.35
2023-04-22T13:50:13.779Z,49.36
2023-04-22T13:51:31.401Z,49.11
2023-04-22T13:52:34.935Z,49.59
2023-04-22T13:53:39.292Z,49.79
2023-04-22T13:54:57.752Z,49.53
2023-04-22T13:56:01.087Z,50.10
2023-04-22T13:57:19.528Z,50.56
2023-04-22T13:58:22.828Z,51.21
2023-04-22T13:59:30.248Z,51.23
2023-04-22T14:00:33.844Z,51.32
2023-04-22T14:01:38.380Z,51.24